Wellston, Michigan
Current Conditions -  °F | °C
As of 10:15 PM on Saturday 20 Dec 2014 (Local Time) from KMBL Reporting Station
Overcast Overcast  
Wind Chill: 28°   Ceiling: 2300
Heat Index: 28°   Visibility: 10mi
Dew Point: 21°   Wind: 3mph
Humidity: 74%   Direction: 120°ESE
Pressure: 30.25"   Gusts: NA
Location:  44.22°N, 85.96°W
Report Text: KMBL 210315Z AUTO 12003KT 10SM SCT018 BKN023 OVC033 M02/M06 A3025 RMK AO1
Loading
Personal Weather Stations






























Interactive Weather Map New forecast layout! Learn more

10-Day Weather Forecast

Advertisements
Track Severe Weather on mobile